createdAt,value
2018-04-19T00:01:21.280Z,53.98
2018-04-19T00:03:48.877Z,54.17
2018-04-19T00:06:16.508Z,53.77
2018-04-19T00:08:44.094Z,53.76
2018-04-19T00:11:11.738Z,54.18
2018-04-19T00:13:39.331Z,55.57
2018-04-19T00:16:06.941Z,55.75
2018-04-19T00:18:34.555Z,55.60
2018-04-19T00:21:02.155Z,55.44
2018-04-19T00:23:29.779Z,55.37
2018-04-19T00:25:57.430Z,55.55
2018-04-19T00:28:25.062Z,55.60
2018-04-19T00:30:52.656Z,55.64
2018-04-19T00:33:20.255Z,55.82
2018-04-19T00:35:47.880Z,55.49
2018-04-19T00:38:15.470Z,56.20
2018-04-19T00:40:43.086Z,56.65
2018-04-19T00:43:10.682Z,57.67
2018-04-19T00:45:38.588Z,57.92
2018-04-19T00:48:06.254Z,57.94
2018-04-19T00:50:33.846Z,57.93
2018-04-19T00:53:09.216Z,58.17
2018-04-19T00:55:36.818Z,57.96
2018-04-19T00:58:04.435Z,58.02
2018-04-19T01:00:32.030Z,58.07
2018-04-19T01:02:59.903Z,57.94
2018-04-19T01:05:27.501Z,57.70
2018-04-19T01:07:55.100Z,57.33
2018-04-19T01:10:22.745Z,57.19
2018-04-19T01:12:50.341Z,56.83
2018-04-19T01:15:17.965Z,56.62
2018-04-19T01:17:45.576Z,56.78
2018-04-19T01:20:13.434Z,56.97
2018-04-19T01:22:41.040Z,56.82
2018-04-19T01:25:08.663Z,56.65
2018-04-19T01:27:36.292Z,56.59
2018-04-19T01:30:03.895Z,56.78
2018-04-19T01:32:31.507Z,56.50
2018-04-19T01:34:59.096Z,56.15
2018-04-19T01:37:26.722Z,56.58
2018-04-19T01:39:54.313Z,56.00
2018-04-19T01:42:21.931Z,55.47
2018-04-19T01:44:49.666Z,55.34
2018-04-19T01:47:17.726Z,55.73
2018-04-19T01:49:45.319Z,56.37
2018-04-19T01:52:12.907Z,56.87
2018-04-19T01:54:40.519Z,56.98
2018-04-19T01:57:08.108Z,56.53
2018-04-19T01:59:36.250Z,56.52
2018-04-19T02:02:03.847Z,56.03
2018-04-19T02:04:31.465Z,56.26
2018-04-19T02:06:59.090Z,56.58
2018-04-19T02:09:26.687Z,56.50
2018-04-19T02:11:54.319Z,56.68
2018-04-19T02:14:21.911Z,57.09
2018-04-19T02:16:49.501Z,57.67
2018-04-19T02:19:17.118Z,57.81
2018-04-19T02:21:44.712Z,57.86
2018-04-19T02:24:12.322Z,57.25
2018-04-19T02:26:39.929Z,56.91
2018-04-19T02:29:07.877Z,56.61
2018-04-19T02:31:35.749Z,56.51
2018-04-19T02:34:03.343Z,56.50
2018-04-19T02:36:30.970Z,56.45
2018-04-19T02:38:58.582Z,56.66
2018-04-19T02:41:26.194Z,56.87
2018-04-19T02:43:53.791Z,56.50
2018-04-19T02:46:21.418Z,56.41
2018-04-19T02:48:49.003Z,56.79
2018-04-19T02:51:16.599Z,56.68
2018-04-19T02:53:44.218Z,57.09
2018-04-19T02:56:11.816Z,56.88
2018-04-19T02:58:39.421Z,56.97
2018-04-19T03:01:07.027Z,57.35
2018-04-19T03:03:34.672Z,57.63
2018-04-19T03:08:36.016Z,56.84
2018-04-19T03:11:03.616Z,57.61
2018-04-19T03:13:31.294Z,57.34
2018-04-19T03:15:58.900Z,58.50
2018-04-19T03:18:26.487Z,59.12
2018-04-19T03:20:54.105Z,59.19
2018-04-19T03:23:21.704Z,58.53
2018-04-19T03:25:49.479Z,58.33
2018-04-19T03:28:17.077Z,58.25
2018-04-19T03:30:44.678Z,58.51
2018-04-19T03:33:12.345Z,58.79
2018-04-19T03:35:39.950Z,58.93
2018-04-19T03:38:07.563Z,59.63
2018-04-19T03:40:35.160Z,60.36
2018-04-19T03:43:02.974Z,61.95
2018-04-19T03:45:30.569Z,61.91
2018-04-19T03:47:58.212Z,62.79
2018-04-19T03:50:25.822Z,62.75
2018-04-19T03:52:53.418Z,63.16
2018-04-19T03:55:21.040Z,62.91
2018-04-19T03:57:48.647Z,62.58
2018-04-19T04:00:16.277Z,62.52
2018-04-19T04:02:43.973Z,62.02
2018-04-19T04:05:11.699Z,62.09
2018-04-19T04:07:39.321Z,62.11
2018-04-19T04:10:06.915Z,62.13
2018-04-19T04:12:34.530Z,62.32
2018-04-19T04:15:02.128Z,62.88
2018-04-19T04:17:41.433Z,63.24
2018-04-19T04:20:20.852Z,63.31
2018-04-19T04:23:00.219Z,63.59
2018-04-19T04:25:27.807Z,63.26
2018-04-19T04:27:55.545Z,63.71
2018-04-19T04:30:23.138Z,63.72
2018-04-19T04:32:50.734Z,63.87
2018-04-19T04:35:18.403Z,64.43
2018-04-19T04:37:46.008Z,64.29
2018-04-19T04:40:13.632Z,64.46
2018-04-19T04:42:41.222Z,64.47
2018-04-19T04:45:09.055Z,64.65
2018-04-19T04:47:36.648Z,64.78
2018-04-19T04:50:04.244Z,64.72
2018-04-19T04:52:31.861Z,65.68
2018-04-19T04:54:59.451Z,64.96
2018-04-19T04:57:27.080Z,64.85
2018-04-19T04:59:54.684Z,65.00
2018-04-19T05:02:22.320Z,65.54
2018-04-19T05:04:49.923Z,66.05
2018-04-19T05:07:17.511Z,66.22
2018-04-19T05:09:45.177Z,66.76
2018-04-19T05:12:12.790Z,67.06
2018-04-19T05:14:40.399Z,67.30
2018-04-19T05:17:07.999Z,67.51
2018-04-19T05:19:35.592Z,67.61
2018-04-19T05:22:03.240Z,67.85
2018-04-19T05:24:30.841Z,67.86
2018-04-19T05:26:58.704Z,67.98
2018-04-19T05:29:26.306Z,67.82
2018-04-19T05:31:53.907Z,68.54
2018-04-19T05:34:21.519Z,67.65
2018-04-19T05:36:49.114Z,67.16
2018-04-19T05:39:16.750Z,66.95
2018-04-19T05:41:44.354Z,66.84
2018-04-19T05:44:11.955Z,66.56
2018-04-19T05:46:39.717Z,65.27
2018-04-19T05:49:07.298Z,64.78
2018-04-19T05:51:34.922Z,64.16
2018-04-19T05:54:02.521Z,63.20
2018-04-19T05:56:30.162Z,63.09
2018-04-19T05:58:57.755Z,62.23
2018-04-19T06:01:25.349Z,61.37
2018-04-19T06:03:52.965Z,60.99
2018-04-19T06:06:20.594Z,60.82
2018-04-19T06:08:48.219Z,60.51
2018-04-19T06:11:16.720Z,60.79
2018-04-19T06:13:44.350Z,60.29
2018-04-19T06:16:11.948Z,59.56
2018-04-19T06:18:39.534Z,58.61
2018-04-19T06:21:07.151Z,58.94
2018-04-19T06:23:34.751Z,58.29
2018-04-19T06:26:02.371Z,57.96
2018-04-19T06:28:29.957Z,57.50
2018-04-19T06:30:57.714Z,57.50
2018-04-19T06:33:25.326Z,55.92
2018-04-19T06:35:52.963Z,55.03
2018-04-19T06:38:20.576Z,54.56
2018-04-19T06:40:48.176Z,54.55
2018-04-19T06:43:15.799Z,53.35
2018-04-19T06:45:43.706Z,52.74
2018-04-19T06:48:11.566Z,53.08
2018-04-19T06:50:39.162Z,52.62
2018-04-19T06:53:06.761Z,51.92
2018-04-19T06:55:34.399Z,50.88
2018-04-19T06:58:01.992Z,49.88
2018-04-19T07:00:29.615Z,49.27
2018-04-19T07:02:57.251Z,48.67
2018-04-19T07:05:24.873Z,49.22
2018-04-19T07:07:52.541Z,48.09
2018-04-19T07:10:20.130Z,47.89
2018-04-19T07:12:47.787Z,47.86
2018-04-19T07:15:15.377Z,47.62
2018-04-19T07:17:43.108Z,47.31
2018-04-19T07:20:10.795Z,47.15
2018-04-19T07:22:38.500Z,47.20
2018-04-19T07:25:06.098Z,46.94
2018-04-19T07:27:33.717Z,47.05
2018-04-19T07:30:01.332Z,46.63
2018-04-19T07:32:29.220Z,46.26
2018-04-19T07:34:56.828Z,46.79
2018-04-19T07:37:24.414Z,45.82
2018-04-19T07:39:52.174Z,45.44
2018-04-19T07:42:20.067Z,44.93
2018-04-19T07:44:47.925Z,44.86
2018-04-19T07:47:15.534Z,44.48
2018-04-19T07:49:43.137Z,44.75
2018-04-19T07:52:10.756Z,44.28
2018-04-19T07:54:38.341Z,44.34
2018-04-19T07:57:05.991Z,44.08
2018-04-19T07:59:33.570Z,44.03
2018-04-19T08:02:01.174Z,42.35
2018-04-19T08:04:28.787Z,40.00
2018-04-19T08:06:56.370Z,39.76
2018-04-19T08:09:24.001Z,38.40
2018-04-19T08:11:51.905Z,37.92
2018-04-19T08:14:20.298Z,36.99
2018-04-19T08:16:47.945Z,37.11
2018-04-19T08:19:15.541Z,36.73
2018-04-19T08:21:43.159Z,35.94
2018-04-19T08:24:10.744Z,36.15
2018-04-19T08:26:38.362Z,35.75
2018-04-19T08:29:05.960Z,35.23
2018-04-19T08:31:33.916Z,35.53
2018-04-19T08:34:03.900Z,35.65
2018-04-19T08:36:31.807Z,34.58
2018-04-19T08:38:59.414Z,34.36
2018-04-19T08:41:27.018Z,34.82
2018-04-19T08:43:54.978Z,33.48
2018-04-19T08:46:22.581Z,32.84
2018-04-19T08:48:50.164Z,32.35
2018-04-19T08:51:17.782Z,32.28
2018-04-19T08:53:46.559Z,30.99
2018-04-19T08:56:14.491Z,30.61
2018-04-19T08:58:42.078Z,31.55
2018-04-19T09:01:09.715Z,31.44
2018-04-19T09:03:37.313Z,32.14
2018-04-19T09:06:04.896Z,31.27
2018-04-19T09:08:32.529Z,29.17
2018-04-19T09:11:00.139Z,28.46
2018-04-19T09:13:27.823Z,30.07
2018-04-19T09:15:55.382Z,30.41
2018-04-19T09:18:23.277Z,31.64
2018-04-19T09:20:50.874Z,30.32
2018-04-19T09:23:18.468Z,29.70
2018-04-19T09:25:46.091Z,28.60
2018-04-19T09:28:13.691Z,28.01
2018-04-19T09:30:41.302Z,28.60
2018-04-19T09:33:09.277Z,28.94
2018-04-19T09:35:37.126Z,29.11
2018-04-19T09:38:04.724Z,28.35
2018-04-19T09:40:32.305Z,28.73
2018-04-19T09:42:59.923Z,29.08
2018-04-19T09:45:27.519Z,29.97
2018-04-19T09:47:55.161Z,30.11
2018-04-19T09:50:22.747Z,30.36
2018-04-19T09:52:50.554Z,28.08
2018-04-19T09:55:18.140Z,28.75
2018-04-19T09:57:57.755Z,28.12
2018-04-19T10:00:25.358Z,28.89
2018-04-19T10:02:52.947Z,28.57
2018-04-19T10:05:20.569Z,28.86
2018-04-19T10:07:48.220Z,30.09
2018-04-19T10:10:15.837Z,28.23
2018-04-19T10:12:43.528Z,29.58
2018-04-19T10:15:11.142Z,27.59
2018-04-19T10:17:38.738Z,28.42
2018-04-19T10:20:06.331Z,28.66
2018-04-19T10:22:33.937Z,28.61
2018-04-19T10:25:03.258Z,27.99
2018-04-19T10:27:30.898Z,27.88
2018-04-19T10:29:58.484Z,28.16
2018-04-19T10:32:26.377Z,26.86
2018-04-19T10:34:53.961Z,29.55
2018-04-19T10:37:21.597Z,31.45
2018-04-19T10:39:49.214Z,28.81
2018-04-19T10:42:16.803Z,28.23
2018-04-19T10:44:44.591Z,27.28
2018-04-19T10:47:12.178Z,27.30
2018-04-19T10:49:40.216Z,26.94
2018-04-19T10:52:07.809Z,27.80
2018-04-19T10:54:35.390Z,28.41
2018-04-19T10:57:03.008Z,26.10
2018-04-19T10:59:30.602Z,25.88
2018-04-19T11:01:58.202Z,24.74
2018-04-19T11:04:25.886Z,26.34
2018-04-19T11:06:53.502Z,27.67
2018-04-19T11:09:21.130Z,26.57
2018-04-19T11:11:48.718Z,25.97
2018-04-19T11:14:16.335Z,25.91
2018-04-19T11:16:44.215Z,25.99
2018-04-19T11:19:11.819Z,24.72
2018-04-19T11:21:39.749Z,25.14
2018-04-19T11:24:07.821Z,27.75
2018-04-19T11:26:35.402Z,23.95
2018-04-19T11:29:03.915Z,25.46
2018-04-19T11:31:31.531Z,24.86
2018-04-19T11:33:59.121Z,26.45
2018-04-19T11:36:26.737Z,23.75
2018-04-19T11:38:54.330Z,25.61
2018-04-19T11:41:22.357Z,24.90
2018-04-19T11:43:49.959Z,24.68
2018-04-19T11:46:17.576Z,25.67
2018-04-19T11:48:45.215Z,24.60
2018-04-19T11:51:12.820Z,25.54
2018-04-19T11:53:40.868Z,24.70
2018-04-19T11:56:08.457Z,23.64
2018-04-19T11:58:36.045Z,25.79
2018-04-19T12:01:03.655Z,22.93
2018-04-19T12:03:31.545Z,22.91
2018-04-19T12:05:59.924Z,23.61
2018-04-19T12:08:27.538Z,21.27
2018-04-19T12:10:57.695Z,21.76
2018-04-19T12:13:25.558Z,22.11
2018-04-19T12:15:53.515Z,21.10
2018-04-19T12:18:21.958Z,22.10
2018-04-19T12:20:50.493Z,21.61
2018-04-19T12:23:18.354Z,22.40
2018-04-19T12:25:45.940Z,22.20
2018-04-19T12:28:23.210Z,22.04
2018-04-19T12:30:54.628Z,22.29
2018-04-19T12:33:23.340Z,21.72
2018-04-19T12:35:55.234Z,22.12
2018-04-19T12:38:24.215Z,22.38
2018-04-19T12:40:51.962Z,22.05
2018-04-19T12:43:23.334Z,23.37
2018-04-19T12:46:02.068Z,25.08
2018-04-19T12:51:23.075Z,22.41
2018-04-19T12:53:57.237Z,20.36
2018-04-19T12:56:25.877Z,19.97
2018-04-19T12:58:58.573Z,19.44
2018-04-19T13:01:35.949Z,18.50
2018-04-19T13:04:16.243Z,18.77
2018-04-19T13:06:56.154Z,18.03
2018-04-19T13:09:36.966Z,16.91
2018-04-19T13:12:23.761Z,16.81
2018-04-19T13:15:04.241Z,16.47
2018-04-19T13:17:44.468Z,16.13
2018-04-19T13:20:23.476Z,14.43
2018-04-19T13:23:04.428Z,15.23
2018-04-19T13:25:42.063Z,14.83
2018-04-19T13:28:20.457Z,15.05
2018-04-19T13:30:50.248Z,14.55
2018-04-19T13:33:29.612Z,14.78
2018-04-19T13:36:10.364Z,14.29
2018-04-19T13:38:47.538Z,13.76
2018-04-19T13:41:18.834Z,14.38
2018-04-19T13:43:52.532Z,15.57
2018-04-19T13:46:27.685Z,14.29
2018-04-19T13:49:04.953Z,15.24
2018-04-19T13:51:42.564Z,13.90
2018-04-19T13:54:20.247Z,12.78
2018-04-19T13:56:58.922Z,12.83
2018-04-19T13:59:35.784Z,13.69
2018-04-19T14:02:11.220Z,13.74
2018-04-19T14:04:55.166Z,13.76
2018-04-19T14:07:38.573Z,14.25
2018-04-19T14:12:58.398Z,15.05
2018-04-19T14:15:35.369Z,15.78
2018-04-19T14:18:05.738Z,16.70
2018-04-19T14:20:34.118Z,17.64
2018-04-19T14:23:01.801Z,17.95
2018-04-19T14:25:37.334Z,17.93
2018-04-19T14:28:05.839Z,18.61
2018-04-19T14:30:33.603Z,19.79
2018-04-19T14:33:01.415Z,18.94
2018-04-19T14:35:29.014Z,19.50
2018-04-19T14:37:56.627Z,19.34
2018-04-19T14:40:24.214Z,20.24
2018-04-19T14:42:51.856Z,20.52
2018-04-19T14:45:19.457Z,20.27
2018-04-19T14:47:47.238Z,20.79
2018-04-19T14:50:14.842Z,20.70
2018-04-19T14:52:42.450Z,21.09
2018-04-19T14:55:10.113Z,21.23
2018-04-19T14:57:37.966Z,21.61
2018-04-19T15:00:05.580Z,21.71
2018-04-19T15:02:33.185Z,21.82
2018-04-19T15:05:00.879Z,21.52
2018-04-19T15:07:31.749Z,22.05
2018-04-19T15:10:00.558Z,22.17
2018-04-19T15:12:28.373Z,22.61
2018-04-19T15:14:56.038Z,21.74
2018-04-19T15:17:23.763Z,22.25
2018-04-19T15:19:51.321Z,21.44
2018-04-19T15:22:18.941Z,21.66
2018-04-19T15:24:46.529Z,21.79
2018-04-19T15:27:14.160Z,21.94
2018-04-19T15:29:41.757Z,22.09
2018-04-19T15:32:09.345Z,21.33
2018-04-19T15:34:36.965Z,21.73
2018-04-19T15:37:05.705Z,21.60
2018-04-19T15:39:33.314Z,22.96
2018-04-19T15:42:00.905Z,21.95
2018-04-19T15:44:28.938Z,20.78
2018-04-19T15:46:56.538Z,21.18
2018-04-19T15:49:24.123Z,21.83
2018-04-19T15:51:51.732Z,21.76
2018-04-19T15:54:19.325Z,21.41
2018-04-19T15:56:46.971Z,21.02
2018-04-19T15:59:14.572Z,21.20
2018-04-19T16:01:42.345Z,21.04
2018-04-19T16:04:09.926Z,20.99
2018-04-19T16:06:37.522Z,21.34
2018-04-19T16:09:05.826Z,21.95
2018-04-19T16:11:33.423Z,21.85
2018-04-19T16:14:01.045Z,22.40
2018-04-19T16:16:28.649Z,22.49
2018-04-19T16:18:56.328Z,22.60
2018-04-19T16:21:23.882Z,22.42
2018-04-19T16:23:51.488Z,22.42
2018-04-19T16:26:19.092Z,22.33
2018-04-19T16:28:48.622Z,22.95
2018-04-19T16:31:14.332Z,22.77
2018-04-19T16:33:41.923Z,23.69
2018-04-19T16:36:09.743Z,22.69
2018-04-19T16:38:37.341Z,22.76
2018-04-19T16:41:04.944Z,23.45
2018-04-19T16:43:32.576Z,23.88
2018-04-19T16:46:00.171Z,24.15
2018-04-19T16:48:28.152Z,24.04
2018-04-19T16:50:55.763Z,23.98
2018-04-19T16:53:23.393Z,23.88
2018-04-19T16:55:50.999Z,23.02
2018-04-19T16:58:18.596Z,23.33
2018-04-19T17:00:46.206Z,24.14
2018-04-19T17:03:13.802Z,24.24
2018-04-19T17:05:41.414Z,24.82
2018-04-19T17:08:09.026Z,25.02
2018-04-19T17:10:36.895Z,25.13
2018-04-19T17:13:04.494Z,25.26
2018-04-19T17:15:32.232Z,25.16
2018-04-19T17:18:01.892Z,24.54
2018-04-19T17:20:29.497Z,24.16
2018-04-19T17:22:57.116Z,24.15
2018-04-19T17:25:24.702Z,24.49
2018-04-19T17:27:52.290Z,25.58
2018-04-19T17:30:21.177Z,25.32
2018-04-19T17:32:48.764Z,25.43
2018-04-19T17:35:16.383Z,25.24
2018-04-19T17:37:43.970Z,25.66
2018-04-19T17:40:11.559Z,25.34
2018-04-19T17:42:39.165Z,25.37
2018-04-19T17:45:06.847Z,25.66
2018-04-19T17:47:34.801Z,25.53
2018-04-19T17:50:02.394Z,25.58
2018-04-19T17:52:29.990Z,25.89
2018-04-19T17:54:57.618Z,25.90
2018-04-19T17:57:25.213Z,25.86
2018-04-19T17:59:52.829Z,25.99
2018-04-19T18:02:20.568Z,26.08
2018-04-19T18:04:48.191Z,26.43
2018-04-19T18:07:15.793Z,26.38
2018-04-19T18:09:43.382Z,26.46
2018-04-19T18:12:11.124Z,26.60
2018-04-19T18:14:38.717Z,26.86
2018-04-19T18:17:06.327Z,26.97
2018-04-19T18:19:33.919Z,27.26
2018-04-19T18:22:01.638Z,27.58
2018-04-19T18:24:29.223Z,27.95
2018-04-19T18:26:56.816Z,28.20
2018-04-19T18:29:25.324Z,28.31
2018-04-19T18:31:52.946Z,28.50
2018-04-19T18:34:20.800Z,28.67
2018-04-19T18:36:48.442Z,28.68
2018-04-19T18:39:16.021Z,28.81
2018-04-19T18:41:43.633Z,28.95
2018-04-19T18:44:11.227Z,29.28
2018-04-19T18:46:38.855Z,29.90
2018-04-19T18:49:06.460Z,29.90
2018-04-19T18:51:34.133Z,30.28
2018-04-19T18:54:01.751Z,30.55
2018-04-19T18:56:29.414Z,30.50
2018-04-19T18:58:57.445Z,30.92
2018-04-19T19:01:25.036Z,31.12
2018-04-19T19:03:52.632Z,31.69
2018-04-19T19:06:20.250Z,31.56
2018-04-19T19:08:47.961Z,31.90
2018-04-19T19:11:15.749Z,32.04
2018-04-19T19:13:43.472Z,32.98
2018-04-19T19:16:11.077Z,32.86
2018-04-19T19:18:50.527Z,33.04
2018-04-19T19:21:18.120Z,33.26
2018-04-19T19:23:45.752Z,33.67
2018-04-19T19:26:13.345Z,33.78
2018-04-19T19:28:41.150Z,33.97
2018-04-19T19:31:08.750Z,34.23
2018-04-19T19:33:36.345Z,34.29
2018-04-19T19:36:03.957Z,34.34
2018-04-19T19:38:32.554Z,34.53
2018-04-19T19:41:00.232Z,35.04
2018-04-19T19:43:27.821Z,35.10
2018-04-19T19:45:55.597Z,35.26
2018-04-19T19:48:23.191Z,35.36
2018-04-19T19:50:50.799Z,35.55
2018-04-19T19:53:18.726Z,35.82
2018-04-19T19:55:46.611Z,36.18
2018-04-19T19:58:14.242Z,36.27
2018-04-19T20:00:41.987Z,36.59
2018-04-19T20:03:10.168Z,36.52
2018-04-19T20:05:38.088Z,36.73
2018-04-19T20:08:05.874Z,36.95
2018-04-19T20:10:33.721Z,37.11
2018-04-19T20:13:01.512Z,37.62
2018-04-19T20:15:29.260Z,37.92
2018-04-19T20:17:56.940Z,38.32
2018-04-19T20:20:24.733Z,38.33
2018-04-19T20:22:52.323Z,38.56
2018-04-19T20:25:19.914Z,38.81
2018-04-19T20:27:47.523Z,38.91
2018-04-19T20:30:15.125Z,39.19
2018-04-19T20:32:42.741Z,39.50
2018-04-19T20:35:10.342Z,39.67
2018-04-19T20:37:38.203Z,40.16
2018-04-19T20:40:06.181Z,40.48
2018-04-19T20:42:33.899Z,40.45
2018-04-19T20:45:01.529Z,40.71
2018-04-19T20:47:29.123Z,41.04
2018-04-19T20:49:56.734Z,41.56
2018-04-19T20:52:24.346Z,41.76
2018-04-19T20:54:52.209Z,41.76
2018-04-19T20:57:19.800Z,42.04
2018-04-19T20:59:47.390Z,42.31
2018-04-19T21:02:14.991Z,42.45
2018-04-19T21:04:42.596Z,42.68
2018-04-19T21:07:10.231Z,42.63
2018-04-19T21:09:37.825Z,43.09
2018-04-19T21:12:05.742Z,43.55
2018-04-19T21:14:33.343Z,44.04
2018-04-19T21:17:00.939Z,44.07
2018-04-19T21:19:28.556Z,44.89
2018-04-19T21:21:56.149Z,45.52
2018-04-19T21:24:23.792Z,45.74
2018-04-19T21:26:51.393Z,45.72
2018-04-19T21:29:19.022Z,46.00
2018-04-19T21:31:46.616Z,45.99
2018-04-19T21:34:14.359Z,46.25
2018-04-19T21:36:41.950Z,46.51
2018-04-19T21:39:09.624Z,46.94
2018-04-19T21:41:37.285Z,46.77
2018-04-19T21:44:04.875Z,46.93
2018-04-19T21:46:32.494Z,47.37
2018-04-19T21:49:00.078Z,47.43
2018-04-19T21:51:27.931Z,47.54
2018-04-19T21:53:55.517Z,47.69
2018-04-19T21:56:23.120Z,47.88
2018-04-19T21:58:50.734Z,47.92
2018-04-19T22:01:18.324Z,48.12
2018-04-19T22:03:45.939Z,48.29
2018-04-19T22:06:13.532Z,48.51
2018-04-19T22:08:41.146Z,48.79
2018-04-19T22:11:08.743Z,49.72
2018-04-19T22:13:36.331Z,50.66
2018-04-19T22:16:03.940Z,50.08
2018-04-19T22:18:31.527Z,50.23
2018-04-19T22:20:59.150Z,50.13
2018-04-19T22:23:26.762Z,50.15
2018-04-19T22:25:54.595Z,51.58
2018-04-19T22:28:22.195Z,51.84
2018-04-19T22:30:49.787Z,51.63
2018-04-19T22:33:17.411Z,51.51
2018-04-19T22:35:44.999Z,50.99
2018-04-19T22:38:12.890Z,51.01
2018-04-19T22:40:40.499Z,51.09
2018-04-19T22:43:08.145Z,51.23
2018-04-19T22:45:35.736Z,51.59
2018-04-19T22:48:03.332Z,52.11
2018-04-19T22:50:30.944Z,52.67
2018-04-19T22:52:58.541Z,52.67
2018-04-19T22:55:26.154Z,52.37
2018-04-19T22:57:53.773Z,52.50
2018-04-19T23:00:21.423Z,52.55
2018-04-19T23:02:49.013Z,52.68
2018-04-19T23:05:16.685Z,52.93
2018-04-19T23:07:44.302Z,53.64
2018-04-19T23:10:11.898Z,54.00
2018-04-19T23:12:39.518Z,53.72
2018-04-19T23:15:07.119Z,53.61
2018-04-19T23:17:35.011Z,53.68
2018-04-19T23:20:02.606Z,53.46
2018-04-19T23:22:35.426Z,53.47
2018-04-19T23:25:03.032Z,53.91
2018-04-19T23:27:30.631Z,54.32
2018-04-19T23:29:58.282Z,54.34
2018-04-19T23:32:25.884Z,54.81
2018-04-19T23:34:53.495Z,54.20
2018-04-19T23:37:21.090Z,54.37
2018-04-19T23:39:49.066Z,54.61
2018-04-19T23:42:16.667Z,54.48
2018-04-19T23:44:44.276Z,54.77
2018-04-19T23:47:11.899Z,54.70
2018-04-19T23:49:39.489Z,55.01
2018-04-19T23:52:07.107Z,54.91
2018-04-19T23:54:34.705Z,55.08
2018-04-19T23:57:02.506Z,55.40
2018-04-19T23:59:30.104Z,55.53
